EGBS weather

Shobdon Aerodrome
Shobdon, England, United Kingdom

Public forecast

Using degrees Celsius for public forecast. Weather courtesy of forecast.io.

METAR (pilot weather report)

Closest report is DCAE Cosford Air Base, 31.9 nm (59.0 km) NE. Retrieved 2019/04/25 07:50 UTC (24 minutes ago):

EGWC 250750Z 14016KT 9999 SCT012 BKN018 11/08 Q0994 GRN

TAF (pilot weather forecast)

Forecast is more than 12 hours old.

Closest forecast is RAF Shawbury, 34.3 nm (63.5 km) NNE. Retrieved 2010/10/20 21:33 UTC (9 years ago):

TAF TAF EGOS 201947Z 2021/2124 CNL